createdAt,value
2023-04-29T00:03:14.035Z,20.92
2023-04-29T00:08:16.050Z,4.10
2023-04-29T00:13:17.805Z,20.08
2023-04-29T00:18:19.501Z,9.23
2023-04-29T00:23:21.166Z,18.10
2023-04-29T00:28:23.066Z,22.85
2023-04-29T00:33:24.899Z,11.85
2023-04-29T00:38:26.843Z,11.90
2023-04-29T00:43:28.515Z,17.08
2023-04-29T00:48:30.255Z,44.45
2023-04-29T00:53:32.953Z,33.47
2023-04-29T00:58:36.362Z,34.60
2023-04-29T01:03:39.083Z,35.95
2023-04-29T01:09:05.975Z,37.90
2023-04-29T01:14:08.564Z,51.10
2023-04-29T01:19:24.897Z,34.40
2023-04-29T01:24:27.009Z,30.58
2023-04-29T01:29:53.845Z,13.63
2023-04-29T01:35:18.569Z,37.00
2023-04-29T01:40:26.649Z,26.90
2023-04-29T01:45:29.132Z,17.00
2023-04-29T01:50:30.945Z,14.02
2023-04-29T01:55:32.833Z,34.60
2023-04-29T02:00:34.716Z,6.78
2023-04-29T02:05:36.690Z,4.40
2023-04-29T02:10:38.584Z,10.40
2023-04-29T02:15:47.803Z,4.88
2023-04-29T02:20:51.898Z,3.67
2023-04-29T02:25:54.202Z,3.72
2023-04-29T02:30:56.085Z,3.90
2023-04-29T02:35:59.782Z,4.88
2023-04-29T02:41:01.710Z,2.80
2023-04-29T02:46:03.617Z,6.43
2023-04-29T02:51:05.663Z,5.78
2023-04-29T02:56:11.664Z,5.25
2023-04-29T03:01:17.530Z,6.15
2023-04-29T03:06:19.354Z,6.68
2023-04-29T03:11:21.253Z,3.33
2023-04-29T03:16:23.293Z,9.88
2023-04-29T03:21:29.856Z,5.75
2023-04-29T03:26:46.436Z,5.60
2023-04-29T03:31:48.435Z,3.95
2023-04-29T03:36:51.283Z,3.45
2023-04-29T03:41:58.336Z,4.07
2023-04-29T03:47:00.295Z,3.60
2023-04-29T03:52:02.335Z,3.25
2023-04-29T03:57:04.596Z,3.03
2023-04-29T04:02:21.568Z,2.60
2023-04-29T04:07:39.154Z,3.35
2023-04-29T04:12:42.161Z,2.83
2023-04-29T04:17:46.083Z,3.00
2023-04-29T04:22:48.322Z,4.43
2023-04-29T04:27:50.202Z,2.88
2023-04-29T04:32:52.081Z,3.67
2023-04-29T04:37:54.001Z,3.33
2023-04-29T04:42:56.359Z,13.32
2023-04-29T04:47:58.811Z,7.22
2023-04-29T04:53:01.743Z,6.00
2023-04-29T04:58:07.205Z,5.63
2023-04-29T05:03:09.118Z,10.63
2023-04-29T05:08:26.208Z,8.50
2023-04-29T05:13:28.338Z,8.48
2023-04-29T05:18:30.207Z,31.30
2023-04-29T05:23:32.446Z,3.63
2023-04-29T05:28:34.578Z,5.85
2023-04-29T05:33:36.602Z,4.55
2023-04-29T05:38:38.714Z,7.63
2023-04-29T05:43:40.490Z,7.47
2023-04-29T05:48:42.708Z,7.45
2023-04-29T05:53:44.601Z,8.05
2023-04-29T05:58:46.629Z,11.52
2023-04-29T06:03:48.569Z,9.23
2023-04-29T06:08:50.815Z,7.88
2023-04-29T06:13:52.711Z,7.53
2023-04-29T06:18:54.543Z,4.53
2023-04-29T06:24:11.288Z,5.25
2023-04-29T06:29:13.160Z,7.82
2023-04-29T06:34:29.921Z,9.35
2023-04-29T06:39:34.780Z,8.43
2023-04-29T06:44:36.689Z,6.20
2023-04-29T06:49:38.765Z,9.98
2023-04-29T06:54:55.756Z,5.05
2023-04-29T06:59:57.659Z,7.07
2023-04-29T07:05:02.927Z,5.22
2023-04-29T07:10:05.290Z,12.27
2023-04-29T07:15:10.627Z,9.40
2023-04-29T07:20:15.295Z,9.48
2023-04-29T07:25:21.476Z,7.28
2023-04-29T07:30:27.148Z,7.95
2023-04-29T07:35:30.162Z,4.60
2023-04-29T07:40:32.234Z,4.50
2023-04-29T07:45:34.286Z,4.88
2023-04-29T07:50:39.979Z,4.10
2023-04-29T07:55:47.995Z,5.60
2023-04-29T08:00:56.386Z,2.55
2023-04-29T08:06:08.890Z,6.30
2023-04-29T08:11:18.627Z,6.30
2023-04-29T08:16:27.432Z,7.18
2023-04-29T08:21:45.754Z,5.65
2023-04-29T09:24:05.521Z,5.47
2023-04-29T09:35:53.558Z,2.65
2023-04-29T10:00:35.053Z,9.73
2023-04-29T10:05:37.387Z,2.67
2023-04-29T10:10:39.505Z,9.27
2023-04-29T10:15:52.955Z,2.60
2023-04-29T10:21:06.828Z,5.22
2023-04-29T10:26:21.176Z,6.45
2023-04-29T10:31:28.336Z,2.38
2023-04-29T10:36:32.136Z,2.00
2023-04-29T10:41:48.248Z,3.85
2023-04-29T10:47:21.629Z,4.07
2023-04-29T10:52:24.519Z,2.10
2023-04-29T10:57:26.314Z,2.72
2023-04-29T11:02:32.059Z,8.45
2023-04-29T11:07:34.509Z,3.25
2023-04-29T11:12:36.481Z,2.60
2023-04-29T11:17:38.777Z,2.20
2023-04-29T11:22:51.513Z,8.18
2023-04-29T11:27:59.301Z,7.65
2023-04-29T11:33:01.711Z,4.07
2023-04-29T11:38:05.227Z,3.55
2023-04-29T11:43:07.124Z,2.67
2023-04-29T11:48:24.532Z,2.90
2023-04-29T11:53:29.744Z,5.85
2023-04-29T11:58:31.586Z,2.72
2023-04-29T12:03:36.695Z,2.28
2023-04-29T12:08:38.744Z,5.88
2023-04-29T12:13:41.574Z,9.05
2023-04-29T12:18:43.965Z,3.90
2023-04-29T12:23:46.525Z,2.38
2023-04-29T12:28:53.708Z,2.83
2023-04-29T12:33:59.191Z,2.45
2023-04-29T12:39:16.505Z,2.80
2023-04-29T12:44:21.408Z,3.45
2023-04-29T12:49:25.111Z,4.00
2023-04-29T12:54:27.053Z,5.70
2023-04-29T12:59:31.695Z,3.35
2023-04-29T13:04:33.547Z,5.10
2023-04-29T13:09:39.685Z,5.38
2023-04-29T13:14:48.551Z,4.57
2023-04-29T13:19:52.024Z,5.18
2023-04-29T13:24:54.329Z,5.88
2023-04-29T13:29:57.162Z,4.57
2023-04-29T13:35:19.746Z,11.85
2023-04-29T13:40:21.752Z,7.00
2023-04-29T13:45:23.603Z,5.47
2023-04-29T13:51:04.782Z,6.65
2023-04-29T14:05:57.626Z,5.68
2023-04-29T14:10:59.576Z,10.23
2023-04-29T14:16:03.747Z,4.53
2023-04-29T14:21:05.722Z,6.47
2023-04-29T14:26:23.148Z,4.60
2023-04-29T14:31:38.979Z,5.63
2023-04-29T14:36:46.717Z,6.55
2023-04-29T14:41:52.802Z,7.78
2023-04-29T14:46:55.030Z,12.02
2023-04-29T14:52:11.462Z,5.93
2023-04-29T14:57:13.663Z,5.28
2023-04-29T15:02:21.977Z,6.22
2023-04-29T15:07:24.466Z,7.20
2023-04-29T15:12:26.432Z,7.32
2023-04-29T15:17:28.806Z,9.15
2023-04-29T15:22:30.695Z,6.18
2023-04-29T15:27:37.920Z,11.52
2023-04-29T15:32:40.042Z,16.23
2023-04-29T15:37:41.972Z,6.78
2023-04-29T15:42:51.473Z,12.93
2023-04-29T15:47:53.327Z,13.52
2023-04-29T15:52:58.844Z,8.15
2023-04-29T15:58:17.330Z,8.23
2023-04-29T16:03:23.610Z,6.18
2023-04-29T16:08:29.029Z,5.03
2023-04-29T16:13:33.181Z,5.13
2023-04-29T16:18:39.774Z,5.22
2023-04-29T16:23:46.760Z,5.65
2023-04-29T16:29:30.838Z,9.82
2023-04-29T16:34:33.920Z,4.72
2023-04-29T16:39:41.725Z,4.22
2023-04-29T16:44:44.365Z,4.97
2023-04-29T16:49:57.364Z,4.53
2023-04-29T16:55:01.643Z,3.92
2023-04-29T17:00:04.492Z,7.05
2023-04-29T17:05:09.495Z,6.32
2023-04-29T17:10:14.349Z,5.40
2023-04-29T17:15:31.749Z,4.38
2023-04-29T17:20:33.985Z,6.68
2023-04-29T17:25:45.104Z,6.57
2023-04-29T17:30:48.050Z,5.18
2023-04-29T17:35:49.869Z,9.07
2023-04-29T17:40:51.690Z,6.32
2023-04-29T17:45:53.618Z,17.08
2023-04-29T17:51:02.956Z,19.23
2023-04-29T17:56:05.117Z,12.25
2023-04-29T18:01:07.094Z,13.60
2023-04-29T18:06:08.883Z,10.85
2023-04-29T18:11:12.614Z,8.82
2023-04-29T18:16:14.515Z,6.47
2023-04-29T18:21:23.887Z,8.98
2023-04-29T18:26:25.676Z,9.52
2023-04-29T18:31:27.448Z,7.07
2023-04-29T18:36:29.330Z,15.93
2023-04-29T18:41:31.210Z,12.07
2023-04-29T18:46:33.044Z,10.52
2023-04-29T18:51:35.389Z,10.15
2023-04-29T18:56:38.959Z,6.28
2023-04-29T19:01:43.347Z,5.85
2023-04-29T19:06:45.270Z,7.88
2023-04-29T19:11:47.436Z,29.63
2023-04-29T19:16:49.196Z,18.05
2023-04-29T19:21:51.332Z,12.63
2023-04-29T19:26:52.981Z,16.55
2023-04-29T19:31:54.736Z,9.13
2023-04-29T19:36:56.579Z,7.22
2023-04-29T19:41:58.353Z,10.18
2023-04-29T19:47:00.199Z,6.70
2023-04-29T19:52:02.578Z,6.72
2023-04-29T19:57:04.362Z,8.80
2023-04-29T20:02:06.150Z,11.43
2023-04-29T20:07:07.973Z,6.00
2023-04-29T20:12:10.357Z,16.65
2023-04-29T20:17:13.749Z,8.10
2023-04-29T20:22:15.599Z,5.78
2023-04-29T20:27:17.705Z,9.50
2023-04-29T20:32:19.615Z,10.57
2023-04-29T20:37:21.478Z,6.60
2023-04-29T20:42:23.207Z,6.68
2023-04-29T20:47:24.903Z,20.23
2023-04-29T20:52:27.630Z,11.32
2023-04-29T20:57:29.451Z,4.60
2023-04-29T21:02:31.443Z,8.18
2023-04-29T21:07:33.148Z,7.03
2023-04-29T21:12:34.860Z,13.18
2023-04-29T21:17:37.316Z,11.32
2023-04-29T21:22:39.032Z,10.70
2023-04-29T21:27:40.924Z,6.53
2023-04-29T21:32:42.822Z,3.17
2023-04-29T21:37:44.962Z,4.45
2023-04-29T21:42:47.557Z,7.07
2023-04-29T21:47:49.618Z,10.65
2023-04-29T21:52:51.431Z,3.20
2023-04-29T21:57:53.342Z,5.00
2023-04-29T22:02:55.066Z,4.72
2023-04-29T22:07:59.023Z,5.90
2023-04-29T22:13:00.828Z,5.40
2023-04-29T22:18:02.649Z,7.78
2023-04-29T22:23:04.509Z,7.28
2023-04-29T22:28:06.202Z,9.50
2023-04-29T22:33:08.015Z,9.43
2023-04-29T22:38:09.943Z,8.35
2023-04-29T22:43:11.718Z,8.07
2023-04-29T22:48:13.740Z,10.57
2023-04-29T22:53:15.577Z,8.30
2023-04-29T22:58:17.503Z,11.05
2023-04-29T23:03:19.976Z,9.95
2023-04-29T23:08:21.694Z,11.05
2023-04-29T23:13:23.937Z,9.98
2023-04-29T23:18:25.865Z,13.02
2023-04-29T23:23:27.584Z,8.57
2023-04-29T23:28:29.372Z,14.18
2023-04-29T23:33:31.617Z,8.23
2023-04-29T23:38:33.745Z,10.73
2023-04-29T23:43:35.493Z,11.90
2023-04-29T23:48:37.446Z,10.57
2023-04-29T23:53:40.158Z,10.35
2023-04-29T23:58:41.876Z,7.78
